Michigantown, Indiana
Current Conditions -  °F | °C
As of 7:55 PM on Wednesday 17 Dec 2014 (Local Time) from KFKR Reporting Station
Overcast Overcast  
Wind Chill: 17°   Ceiling: 1700
Heat Index: 25°   Visibility: 10mi
Dew Point: 22°   Wind: 8mph
Humidity: 86%   Direction: 240°WSW
Pressure: 30.29"   Gusts: NA
Location:  40.33°N, 86.39°W
Report Text: KFKR 180055Z AUTO 24007KT 10SM OVC017 M04/M06 A3029 RMK AO2 T10371058
Loading
Personal Weather Stations






























Interactive Weather Map New forecast layout! Learn more

10-Day Weather Forecast

Advertisements
Track Severe Weather on mobile